Time;durP1;ratioP1;P1;durP2;ratioP2;P2;SDS_P1;SDS_P2;PMS_P1;PMS_P2;Temp;Humidity;BMP_temperature;BMP_pressure;BME280_temperature;BME280_humidity;BME280_pressure;Samples;Min_cycle;Max_cycle;Signal;HPM_P1;HPM_P2
2021/06/15 07:14:38;;;;;;;11.98;8.45;;;;;;;;;;4938935;23;20195;-51
2021/06/15 07:17:04;;;;;;;12.07;9.00;;;;;;;;;;4933177;29;20555;-48
2021/06/15 07:19:30;;;;;;;10.20;8.40;;;;;;;;;;4936034;29;20035;-48
2021/06/15 07:21:56;;;;;;;8.70;7.50;;;;;;;;;;4935951;29;20019;-48
2021/06/15 07:24:22;;;;;;;11.00;7.15;;;;;;;;;;4928969;29;20027;-48
2021/06/15 07:26:49;;;;;;;10.20;8.07;;;;;;;;;;4936150;29;20019;-45
2021/06/15 07:29:15;;;;;;;8.07;7.25;;;;;;;;;;4953846;29;20027;-47
2021/06/15 07:31:41;;;;;;;9.98;7.20;;;;;;;;;;4951878;29;20034;-49
2021/06/15 07:34:07;;;;;;;8.47;6.77;;;;;;;;;;4952251;29;20071;-51
2021/06/15 07:36:33;;;;;;;7.78;6.30;;;;;;;;;;4949822;29;20031;-49
2021/06/15 07:38:59;;;;;;;7.25;6.40;;;;;;;;;;4924525;29;20030;-48
2021/06/15 07:41:25;;;;;;;9.95;6.63;;;;;;;;;;4951116;29;20125;-50
2021/06/15 07:43:51;;;;;;;7.40;6.25;;;;;;;;;;4953353;29;20031;-50
2021/06/15 07:46:17;;;;;;;8.55;5.85;;;;;;;;;;4944189;29;20317;-50
2021/06/15 07:48:44;;;;;;;8.80;6.55;;;;;;;;;;4954006;29;20110;-49
2021/06/15 07:51:10;;;;;;;8.70;6.03;;;;;;;;;;4953867;29;20073;-51
2021/06/15 07:53:36;;;;;;;6.78;5.82;;;;;;;;;;4935639;29;20038;-49
2021/06/15 07:56:02;;;;;;;7.33;5.27;;;;;;;;;;4940578;29;20387;-45
2021/06/15 07:58:29;;;;;;;5.82;5.32;;;;;;;;;;4947165;29;20024;-46
2021/06/15 08:00:55;;;;;;;6.72;5.90;;;;;;;;;;4930667;29;20027;-48
2021/06/15 08:03:23;;;;;;;5.90;5.05;;;;;;;;;;4936111;29;20034;-46
2021/06/15 08:05:49;;;;;;;5.75;5.13;;;;;;;;;;4948618;29;20148;-49
2021/06/15 08:08:15;;;;;;;7.93;6.18;;;;;;;;;;4952839;29;20027;-49
2021/06/15 08:10:42;;;;;;;9.63;7.27;;;;;;;;;;4940367;29;20123;-51
2021/06/15 08:13:08;;;;;;;10.50;7.87;;;;;;;;;;4952738;28;20047;-52
2021/06/15 08:18:37;;;;;;;9.07;6.90;;;;;;;;;;4945307;29;20151;-51
2021/06/15 08:21:04;;;;;;;9.05;6.78;;;;;;;;;;4948430;29;20352;-51
2021/06/15 08:23:30;;;;;;;12.23;8.05;;;;;;;;;;4939295;29;20043;-51
2021/06/15 08:25:57;;;;;;;10.10;7.72;;;;;;;;;;4948630;29;20016;-48
2021/06/15 08:28:23;;;;;;;9.90;6.90;;;;;;;;;;4951313;29;20027;-49
2021/06/15 08:30:49;;;;;;;10.23;7.20;;;;;;;;;;4939048;29;20051;-49
2021/06/15 08:33:16;;;;;;;9.88;7.53;;;;;;;;;;4940334;29;20042;-57
2021/06/15 08:35:42;;;;;;;9.93;7.28;;;;;;;;;;4938415;29;20051;-52
2021/06/15 08:38:08;;;;;;;10.23;7.18;;;;;;;;;;4936916;29;20019;-57
2021/06/15 08:40:34;;;;;;;11.63;8.10;;;;;;;;;;4941591;29;20046;-56
2021/06/15 08:43:01;;;;;;;9.65;7.13;;;;;;;;;;4947467;29;20098;-51
2021/06/15 08:45:27;;;;;;;11.95;7.32;;;;;;;;;;4937716;29;20500;-52
2021/06/15 08:47:54;;;;;;;10.82;7.07;;;;;;;;;;4946926;29;20051;-52
2021/06/15 08:50:22;;;;;;;10.70;7.80;;;;;;;;;;4941392;29;20035;-55
2021/06/15 08:52:49;;;;;;;9.20;6.85;;;;;;;;;;4948219;29;20020;-53
2021/06/15 08:55:15;;;;;;;7.88;7.03;;;;;;;;;;4938839;29;20020;-56
2021/06/15 08:57:42;;;;;;;8.13;6.50;;;;;;;;;;4948493;29;20050;-55
2021/06/15 09:00:10;;;;;;;8.73;6.50;;;;;;;;;;4951019;29;20023;-58
2021/06/15 09:02:56;;;;;;;13.02;7.07;;;;;;;;;;4939196;29;20421;-49
2021/06/15 09:05:22;;;;;;;9.32;5.72;;;;;;;;;;4927974;29;20012;-47
2021/06/15 09:07:57;;;;;;;9.13;6.47;;;;;;;;;;4934699;29;20027;-49
2021/06/15 09:10:27;;;;;;;8.32;6.55;;;;;;;;;;4940966;29;20019;-52
2021/06/15 09:12:53;;;;;;;8.38;6.53;;;;;;;;;;4945476;28;20529;-50
2021/06/15 09:15:21;;;;;;;7.10;5.67;;;;;;;;;;4967695;28;20416;-51
2021/06/15 09:17:48;;;;;;;9.20;6.00;;;;;;;;;;4959914;28;20255;-51
2021/06/15 09:20:17;;;;;;;10.48;6.38;;;;;;;;;;4939920;28;20023;-52
2021/06/15 09:22:43;;;;;;;7.90;5.72;;;;;;;;;;4962794;28;20169;-51
2021/06/15 09:25:13;;;;;;;8.47;5.93;;;;;;;;;;4965966;28;20026;-48
2021/06/15 09:27:39;;;;;;;10.70;6.20;;;;;;;;;;4956847;28;20055;-48
2021/06/15 09:30:07;;;;;;;7.18;5.55;;;;;;;;;;4931167;28;20031;-49
2021/06/15 09:32:46;;;;;;;8.45;6.80;;;;;;;;;;4935299;28;20024;-49
2021/06/15 09:35:16;;;;;;;6.95;6.00;;;;;;;;;;4944653;28;20032;-50
2021/06/15 09:37:47;;;;;;;8.15;5.88;;;;;;;;;;4935007;28;20136;-48
2021/06/15 09:40:20;;;;;;;8.43;6.50;;;;;;;;;;4958973;28;20030;-51
2021/06/15 09:42:57;;;;;;;7.55;5.45;;;;;;;;;;4964336;28;20023;-50
2021/06/15 09:45:30;;;;;;;8.25;5.68;;;;;;;;;;4959728;28;20023;-47
2021/06/15 09:48:15;;;;;;;7.95;5.10;;;;;;;;;;4933936;29;20439;-46
2021/06/15 09:50:42;;;;;;;7.57;5.25;;;;;;;;;;4952637;28;20031;-44
2021/06/15 09:53:44;;;;;;;6.65;4.63;;;;;;;;;;4952338;28;20026;-43
2021/06/15 09:56:11;;;;;;;7.57;4.63;;;;;;;;;;4835605;29;20120;-46
2021/06/15 09:58:46;;;;;;;6.05;4.32;;;;;;;;;;4952416;28;20039;-47
2021/06/15 10:01:25;;;;;;;6.28;4.55;;;;;;;;;;4971202;28;20023;-43
2021/06/15 10:04:09;;;;;;;6.05;5.10;;;;;;;;;;4970852;28;20034;-53
2021/06/15 10:06:36;;;;;;;7.22;5.10;;;;;;;;;;4970351;28;20364;-46
2021/06/15 10:09:02;;;;;;;6.65;4.88;;;;;;;;;;4951909;29;20023;-49
2021/06/15 10:11:28;;;;;;;6.53;5.10;;;;;;;;;;4965781;28;20027;-45
2021/06/15 10:13:56;;;;;;;8.23;5.47;;;;;;;;;;4970760;28;20042;-49
2021/06/15 10:16:22;;;;;;;8.38;5.40;;;;;;;;;;4952151;28;20030;-46
2021/06/15 10:18:48;;;;;;;6.15;5.20;;;;;;;;;;4951968;28;20428;-45
2021/06/15 10:21:14;;;;;;;10.03;5.83;;;;;;;;;;4946033;28;20044;-48
2021/06/15 10:23:42;;;;;;;7.93;4.60;;;;;;;;;;4942603;28;20035;-49
2021/06/15 10:26:08;;;;;;;6.95;5.03;;;;;;;;;;4957596;28;20464;-45
2021/06/15 10:28:35;;;;;;;8.45;5.00;;;;;;;;;;4939712;29;20030;-47
2021/06/15 10:31:05;;;;;;;6.37;4.83;;;;;;;;;;4948185;28;20061;-46
2021/06/15 10:33:44;;;;;;;7.35;4.72;;;;;;;;;;4944313;28;20273;-48
2021/06/15 10:36:10;;;;;;;6.10;4.32;;;;;;;;;;4950352;28;20035;-48
2021/06/15 10:38:47;;;;;;;4.40;4.00;;;;;;;;;;4969114;28;20015;-44
2021/06/15 10:41:24;;;;;;;7.00;4.38;;;;;;;;;;4944121;29;20023;-48
2021/06/15 10:43:54;;;;;;;5.88;4.30;;;;;;;;;;4936023;29;20040;-46
2021/06/15 10:46:20;;;;;;;6.53;4.70;;;;;;;;;;4960568;28;20134;-46
2021/06/15 10:48:47;;;;;;;5.97;3.90;;;;;;;;;;4964833;28;20027;-47
2021/06/15 10:51:21;;;;;;;6.60;3.67;;;;;;;;;;4952278;28;20041;-45
2021/06/15 10:53:47;;;;;;;4.95;4.38;;;;;;;;;;4944165;28;20133;-47
2021/06/15 10:56:15;;;;;;;4.68;3.83;;;;;;;;;;4966990;28;20350;-45
2021/06/15 10:58:47;;;;;;;6.45;4.18;;;;;;;;;;4940533;28;20054;-46
2021/06/15 11:01:14;;;;;;;4.47;3.75;;;;;;;;;;4951435;28;20029;-47
2021/06/15 11:03:40;;;;;;;;;;;;;;;;;;4938168;28;20086;-52
2021/06/15 11:06:06;;;;;;;5.00;3.80;;;;;;;;;;4952132;28;19949;-46
2021/06/15 11:08:33;;;;;;;4.28;3.85;;;;;;;;;;4947983;28;20027;-47
2021/06/15 11:11:25;;;;;;;4.93;4.35;;;;;;;;;;4964024;28;20467;-48
2021/06/15 11:13:53;;;;;;;4.60;3.97;;;;;;;;;;4938543;28;20492;-47
2021/06/15 11:16:20;;;;;;;5.47;4.00;;;;;;;;;;4951253;28;20482;-47
2021/06/15 11:18:47;;;;;;;6.10;3.88;;;;;;;;;;4966037;28;20466;-46
2021/06/15 11:21:25;;;;;;;4.88;3.78;;;;;;;;;;4969402;28;20030;-46
2021/06/15 11:24:11;;;;;;;4.38;3.60;;;;;;;;;;4947519;28;20391;-46
2021/06/15 11:26:37;;;;;;;5.18;3.67;;;;;;;;;;4959209;28;20023;-47
2021/06/15 11:29:03;;;;;;;5.50;4.00;;;;;;;;;;4953008;28;20023;-46
2021/06/15 11:31:30;;;;;;;4.68;3.72;;;;;;;;;;4948786;29;20322;-46
2021/06/15 11:33:59;;;;;;;4.55;3.45;;;;;;;;;;4949135;28;20015;-46
2021/06/15 11:36:37;;;;;;;6.20;3.85;;;;;;;;;;4960610;28;20514;-49
2021/06/15 11:39:27;;;;;;;3.92;3.20;;;;;;;;;;4935085;29;20459;-45
2021/06/15 11:42:20;;;;;;;4.97;3.40;;;;;;;;;;4951604;28;20022;-47
2021/06/15 11:44:53;;;;;;;4.55;3.25;;;;;;;;;;4951853;28;20516;-46
2021/06/15 11:47:32;;;;;;;3.90;3.20;;;;;;;;;;4952296;29;20463;-47
2021/06/15 11:50:07;;;;;;;3.30;2.90;;;;;;;;;;4956842;28;20154;-47
2021/06/15 11:52:36;;;;;;;3.60;3.20;;;;;;;;;;4934114;29;20031;-46
2021/06/15 11:55:02;;;;;;;9.07;3.40;;;;;;;;;;4953039;28;20023;-46
2021/06/15 11:57:29;;;;;;;4.03;3.10;;;;;;;;;;4954578;28;20123;-47
2021/06/15 11:59:55;;;;;;;4.23;3.00;;;;;;;;;;4955628;28;20463;-45
2021/06/15 12:02:21;;;;;;;3.57;3.13;;;;;;;;;;4972636;28;20168;-46
2021/06/15 12:05:06;;;;;;;4.10;3.10;;;;;;;;;;4953891;28;20258;-45
2021/06/15 12:07:35;;;;;;;3.40;2.92;;;;;;;;;;4959106;28;20030;-47
2021/06/15 12:10:11;;;;;;;3.63;2.95;;;;;;;;;;4972751;28;20041;-46
2021/06/15 12:12:52;;;;;;;3.45;2.92;;;;;;;;;;4946844;29;20059;-45
2021/06/15 12:15:25;;;;;;;4.38;2.92;;;;;;;;;;4971294;28;20023;-45
2021/06/15 12:17:52;;;;;;;4.22;3.25;;;;;;;;;;4955015;28;20045;-44
2021/06/15 12:20:44;;;;;;;4.28;3.28;;;;;;;;;;4959531;28;20027;-45
2021/06/15 12:23:29;;;;;;;3.10;2.80;;;;;;;;;;4955317;28;20043;-52
2021/06/15 12:25:56;;;;;;;3.85;2.70;;;;;;;;;;4944575;28;20019;-49
2021/06/15 12:28:24;;;;;;;3.00;2.70;;;;;;;;;;4941193;29;20062;-49
2021/06/15 12:31:07;;;;;;;4.28;3.08;;;;;;;;;;4949585;28;20507;-50
2021/06/15 12:33:34;;;;;;;3.88;2.95;;;;;;;;;;4957039;28;20022;-52
2021/06/15 12:36:05;;;;;;;3.45;2.60;;;;;;;;;;4952561;28;20011;-51
2021/06/15 12:38:31;;;;;;;3.03;2.50;;;;;;;;;;4949654;29;20031;-47
2021/06/15 12:40:58;;;;;;;3.47;2.67;;;;;;;;;;4950038;28;20098;-47
2021/06/15 12:43:26;;;;;;;3.42;2.70;;;;;;;;;;4956725;28;20031;-50
2021/06/15 12:46:11;;;;;;;3.67;2.83;;;;;;;;;;4956097;28;20038;-54
2021/06/15 12:48:43;;;;;;;4.60;3.00;;;;;;;;;;4935265;28;20125;-48
2021/06/15 12:51:10;;;;;;;3.80;2.90;;;;;;;;;;4949234;29;20047;-51
2021/06/15 12:53:38;;;;;;;;;;;;;;;;;;4968428;28;20041;-50
2021/06/15 12:56:12;;;;;;;3.53;3.08;;;;;;;;;;4968535;28;20463;-49
2021/06/15 12:58:38;;;;;;;3.88;2.78;;;;;;;;;;4957547;28;20029;-46
2021/06/15 13:01:14;;;;;;;3.67;2.87;;;;;;;;;;4958605;28;20031;-46
2021/06/15 13:03:43;;;;;;;4.53;3.00;;;;;;;;;;4952357;28;20296;-47
2021/06/15 13:06:10;;;;;;;3.33;2.40;;;;;;;;;;4950128;28;20106;-46
2021/06/15 13:08:37;;;;;;;3.30;2.83;;;;;;;;;;4957658;28;20058;-47
2021/06/15 13:11:09;;;;;;;3.30;2.60;;;;;;;;;;4945609;29;20069;-46
2021/06/15 13:13:36;;;;;;;3.63;2.50;;;;;;;;;;4965549;28;20065;-51
2021/06/15 13:16:14;;;;;;;3.83;2.78;;;;;;;;;;4971431;28;20031;-53
2021/06/15 13:18:40;;;;;;;3.25;2.80;;;;;;;;;;4958382;28;20022;-55
2021/06/15 13:21:06;;;;;;;4.63;2.80;;;;;;;;;;4971629;28;20023;-54
2021/06/15 13:23:33;;;;;;;3.35;2.60;;;;;;;;;;4971336;28;20296;-56
2021/06/15 13:25:59;;;;;;;2.77;2.37;;;;;;;;;;4971423;28;20466;-54
2021/06/15 13:28:26;;;;;;;2.60;2.40;;;;;;;;;;4957769;28;20282;-53
2021/06/15 13:30:52;;;;;;;3.17;2.47;;;;;;;;;;4969534;28;20022;-50
2021/06/15 13:33:24;;;;;;;3.00;2.37;;;;;;;;;;4951695;28;20034;-53
2021/06/15 13:35:59;;;;;;;3.33;2.70;;;;;;;;;;4939524;28;20275;-52
2021/06/15 13:38:25;;;;;;;3.50;2.70;;;;;;;;;;4951852;28;20105;-48
2021/06/15 13:40:52;;;;;;;4.27;2.77;;;;;;;;;;4970976;28;20018;-50
2021/06/15 13:43:20;;;;;;;3.10;2.80;;;;;;;;;;4971339;28;20325;-48
2021/06/15 13:45:48;;;;;;;4.03;2.60;;;;;;;;;;4969785;28;20068;-49
2021/06/15 13:48:14;;;;;;;3.20;2.90;;;;;;;;;;4960174;28;20026;-52
2021/06/15 13:50:42;;;;;;;3.00;2.30;;;;;;;;;;4969126;28;20042;-50
2021/06/15 13:53:08;;;;;;;4.70;2.50;;;;;;;;;;4953401;28;20033;-52
2021/06/15 13:55:35;;;;;;;3.13;2.10;;;;;;;;;;4929204;29;20054;-53
2021/06/15 13:58:03;;;;;;;2.33;1.80;;;;;;;;;;4960309;28;20019;-54
2021/06/15 14:00:29;;;;;;;2.20;1.77;;;;;;;;;;4968257;28;20042;-53
2021/06/15 14:02:59;;;;;;;2.00;1.55;;;;;;;;;;4975033;28;20038;-48
2021/06/15 14:05:25;;;;;;;1.70;1.35;;;;;;;;;;4962961;28;20031;-48
2021/06/15 14:07:52;;;;;;;2.17;1.48;;;;;;;;;;4967258;28;20042;-51
2021/06/15 14:10:19;;;;;;;2.20;1.45;;;;;;;;;;4954984;28;20127;-53
2021/06/15 14:12:46;;;;;;;1.95;1.20;;;;;;;;;;4974600;28;20463;-50
2021/06/15 14:15:14;;;;;;;1.52;0.93;;;;;;;;;;4952147;28;20497;-49
2021/06/15 14:17:40;;;;;;;1.30;1.00;;;;;;;;;;4968547;28;20019;-49
2021/06/15 14:20:09;;;;;;;1.30;1.08;;;;;;;;;;4967504;28;20026;-49
2021/06/15 14:22:36;;;;;;;1.75;1.00;;;;;;;;;;4974380;28;20390;-52
2021/06/15 14:25:03;;;;;;;1.40;0.70;;;;;;;;;;4975037;28;20018;-48
2021/06/15 14:27:29;;;;;;;2.05;0.80;;;;;;;;;;4946216;28;20209;-46
2021/06/15 14:29:56;;;;;;;0.90;0.70;;;;;;;;;;4964617;28;20029;-47
2021/06/15 14:32:22;;;;;;;1.10;0.63;;;;;;;;;;4957978;28;20031;-47
2021/06/15 14:34:48;;;;;;;1.10;0.60;;;;;;;;;;4962838;28;20031;-47
2021/06/15 14:37:14;;;;;;;7.80;1.20;;;;;;;;;;4965810;28;20723;-47
2021/06/15 14:39:40;;;;;;;1.73;0.90;;;;;;;;;;4953900;28;20027;-46
2021/06/15 14:42:08;;;;;;;1.30;0.90;;;;;;;;;;4970624;28;20250;-48
2021/06/15 14:44:35;;;;;;;2.35;1.10;;;;;;;;;;4953675;28;20046;-53
2021/06/15 14:47:01;;;;;;;;;;;;;;;;;;4961353;28;20023;-53
2021/06/15 14:49:27;;;;;;;1.48;1.05;;;;;;;;;;4970261;28;19976;-49
2021/06/15 14:51:56;;;;;;;1.95;1.10;;;;;;;;;;4973671;28;20085;-53
2021/06/15 14:54:23;;;;;;;1.60;1.02;;;;;;;;;;4943230;28;20022;-55
2021/06/15 14:56:49;;;;;;;1.58;1.10;;;;;;;;;;4967269;28;20141;-53
2021/06/15 14:59:15;;;;;;;1.67;1.00;;;;;;;;;;4973736;28;20447;-48
2021/06/15 15:01:41;;;;;;;1.30;1.00;;;;;;;;;;4973959;28;20015;-54
2021/06/15 15:04:08;;;;;;;1.40;0.93;;;;;;;;;;4956874;28;20075;-47
2021/06/15 15:06:34;;;;;;;1.60;0.90;;;;;;;;;;4967669;28;20476;-49
2021/06/15 15:09:00;;;;;;;1.55;1.05;;;;;;;;;;4934577;29;20035;-48
2021/06/15 15:11:29;;;;;;;1.25;0.85;;;;;;;;;;4953632;28;20075;-48
2021/06/15 15:13:55;;;;;;;1.42;0.88;;;;;;;;;;4952473;28;20391;-52
2021/06/15 15:16:21;;;;;;;1.50;0.70;;;;;;;;;;4953332;29;20023;-49
2021/06/15 15:18:48;;;;;;;1.10;0.70;;;;;;;;;;4957926;28;20102;-49
2021/06/15 15:21:14;;;;;;;1.30;0.90;;;;;;;;;;4951656;28;20263;-49
2021/06/15 15:23:41;;;;;;;1.20;0.80;;;;;;;;;;4973693;28;20445;-51
2021/06/15 15:26:07;;;;;;;;;;;;;;;;;;4973800;28;20031;-49
2021/06/15 15:28:33;;;;;;;2.30;1.05;;;;;;;;;;4973586;28;19901;-49
2021/06/15 15:30:59;;;;;;;1.33;0.90;;;;;;;;;;4955386;28;20371;-51
2021/06/15 15:33:25;;;;;;;1.00;0.77;;;;;;;;;;4950460;28;20274;-51
2021/06/15 15:35:51;;;;;;;1.33;0.80;;;;;;;;;;4961869;28;20055;-51
2021/06/15 15:38:18;;;;;;;1.92;0.90;;;;;;;;;;4967155;28;20094;-50
2021/06/15 15:40:44;;;;;;;2.15;1.10;;;;;;;;;;4967041;28;20028;-48
2021/06/15 15:43:13;;;;;;;2.50;0.95;;;;;;;;;;4973436;28;20027;-48
2021/06/15 15:45:40;;;;;;;1.23;0.82;;;;;;;;;;4965587;28;20126;-48
2021/06/15 15:48:06;;;;;;;1.42;0.93;;;;;;;;;;4972944;28;20027;-48
2021/06/15 15:50:34;;;;;;;1.45;1.00;;;;;;;;;;4969954;28;20126;-47
2021/06/15 15:53:00;;;;;;;1.20;0.88;;;;;;;;;;4952013;28;20034;-48
2021/06/15 15:55:27;;;;;;;1.20;0.90;;;;;;;;;;4952823;28;20102;-47
2021/06/15 15:57:54;;;;;;;1.33;1.05;;;;;;;;;;4952417;28;20075;-48
2021/06/15 16:00:22;;;;;;;1.92;1.23;;;;;;;;;;4941412;28;20047;-47
2021/06/15 16:02:48;;;;;;;1.55;1.10;;;;;;;;;;4951583;28;20035;-50
2021/06/15 16:05:15;;;;;;;2.03;1.05;;;;;;;;;;4954370;28;20027;-51
2021/06/15 16:07:42;;;;;;;2.00;1.15;;;;;;;;;;4952257;28;20480;-52
2021/06/15 16:10:08;;;;;;;;;;;;;;;;;;4953660;28;20019;-51
2021/06/15 16:12:34;;;;;;;1.95;1.10;;;;;;;;;;4954583;28;20005;-51
2021/06/15 16:15:00;;;;;;;1.70;1.23;;;;;;;;;;4953969;28;20033;-51
2021/06/15 16:17:27;;;;;;;1.63;1.27;;;;;;;;;;4952393;28;20055;-53
2021/06/15 16:19:53;;;;;;;1.95;1.30;;;;;;;;;;4951740;28;20015;-51
2021/06/15 16:22:19;;;;;;;1.92;1.35;;;;;;;;;;4953242;28;20023;-51
2021/06/15 16:24:46;;;;;;;1.33;1.10;;;;;;;;;;4938315;29;20035;-50
2021/06/15 16:27:12;;;;;;;2.30;1.35;;;;;;;;;;4954365;28;20023;-51
2021/06/15 16:29:40;;;;;;;1.60;1.27;;;;;;;;;;4952594;28;20102;-56
2021/06/15 16:32:06;;;;;;;1.67;1.38;;;;;;;;;;4954252;28;20106;-53
2021/06/15 16:34:33;;;;;;;2.15;1.92;;;;;;;;;;4938001;29;20123;-48
2021/06/15 16:36:59;;;;;;;1.98;1.58;;;;;;;;;;4952460;28;20329;-51
2021/06/15 16:39:25;;;;;;;1.85;1.42;;;;;;;;;;4952248;28;20048;-50
2021/06/15 16:41:51;;;;;;;1.98;1.65;;;;;;;;;;4953160;28;20059;-51
2021/06/15 16:44:17;;;;;;;1.95;1.67;;;;;;;;;;4938579;29;20039;-51
2021/06/15 16:46:43;;;;;;;2.00;1.50;;;;;;;;;;4950902;28;20061;-50
2021/06/15 16:49:09;;;;;;;2.00;1.58;;;;;;;;;;4951564;28;20023;-51
2021/06/15 16:51:35;;;;;;;2.35;1.80;;;;;;;;;;4952234;28;20078;-54
2021/06/15 16:54:05;;;;;;;2.45;1.77;;;;;;;;;;4941540;28;20072;-51
2021/06/15 16:56:33;;;;;;;2.08;1.63;;;;;;;;;;4952032;28;20082;-53
2021/06/15 16:58:59;;;;;;;1.92;1.70;;;;;;;;;;4936892;28;20042;-50
2021/06/15 17:01:27;;;;;;;2.13;1.60;;;;;;;;;;4953304;28;20027;-52
2021/06/15 17:03:53;;;;;;;3.67;1.60;;;;;;;;;;4951229;28;20037;-50
2021/06/15 17:06:20;;;;;;;2.10;1.80;;;;;;;;;;4940909;29;20026;-50
2021/06/15 17:08:46;;;;;;;2.03;1.80;;;;;;;;;;4953956;28;20035;-51
2021/06/15 17:11:12;;;;;;;4.63;1.95;;;;;;;;;;4952034;28;20050;-51
2021/06/15 17:13:39;;;;;;;1.85;1.60;;;;;;;;;;4954537;28;20101;-55
2021/06/15 17:16:05;;;;;;;2.47;1.90;;;;;;;;;;4952636;28;20094;-50
2021/06/15 17:18:31;;;;;;;2.50;1.90;;;;;;;;;;4941780;28;20049;-50
2021/06/15 17:20:58;;;;;;;2.03;1.77;;;;;;;;;;4958350;28;20015;-50
2021/06/15 17:23:24;;;;;;;2.35;1.83;;;;;;;;;;4951648;28;20388;-50
2021/06/15 17:25:50;;;;;;;3.53;2.17;;;;;;;;;;4952262;28;20106;-50
2021/06/15 17:28:17;;;;;;;2.85;2.00;;;;;;;;;;4951834;28;20066;-50
2021/06/15 17:30:43;;;;;;;2.20;1.85;;;;;;;;;;4951668;28;20034;-51
2021/06/15 17:33:10;;;;;;;2.28;2.08;;;;;;;;;;4952528;28;20074;-50
2021/06/15 17:35:36;;;;;;;2.10;1.80;;;;;;;;;;4936458;29;20075;-61
2021/06/15 17:38:03;;;;;;;2.05;1.70;;;;;;;;;;4951411;28;20019;-51
2021/06/15 17:40:32;;;;;;;1.90;1.70;;;;;;;;;;4942286;29;20091;-50
2021/06/15 17:42:58;;;;;;;3.30;2.00;;;;;;;;;;4938236;28;20035;-51
2021/06/15 17:45:26;;;;;;;2.20;1.88;;;;;;;;;;4951993;28;20526;-50
2021/06/15 17:47:52;;;;;;;2.85;1.90;;;;;;;;;;4952771;28;20078;-51
2021/06/15 17:50:19;;;;;;;2.70;1.75;;;;;;;;;;4937411;29;20119;-50
2021/06/15 17:52:47;;;;;;;2.17;1.80;;;;;;;;;;4951123;28;20028;-55
2021/06/15 17:55:14;;;;;;;5.00;3.38;;;;;;;;;;4952108;28;20496;-53
2021/06/15 17:57:41;;;;;;;19.23;9.77;;;;;;;;;;4952400;28;20046;-56
2021/06/15 18:00:10;;;;;;;35.90;17.33;;;;;;;;;;4949648;28;20389;-48
2021/06/15 18:02:36;;;;;;;25.73;13.25;;;;;;;;;;4932251;29;20031;-48
2021/06/15 18:05:11;;;;;;;18.77;10.10;;;;;;;;;;4933547;29;20023;-53
2021/06/15 18:07:44;;;;;;;19.13;10.48;;;;;;;;;;4954854;28;20467;-49
2021/06/15 18:10:10;;;;;;;20.45;10.52;;;;;;;;;;4951379;28;20020;-47
2021/06/15 18:12:39;;;;;;;21.40;10.20;;;;;;;;;;4949761;28;20130;-57
2021/06/15 18:15:06;;;;;;;20.10;10.02;;;;;;;;;;4931371;29;20043;-53
2021/06/15 18:17:32;;;;;;;17.55;8.07;;;;;;;;;;4929042;28;20028;-55
2021/06/15 18:19:58;;;;;;;15.55;8.15;;;;;;;;;;4950548;29;20027;-47
2021/06/15 18:22:24;;;;;;;15.98;7.72;;;;;;;;;;4963900;28;20025;-51
2021/06/15 18:24:50;;;;;;;14.23;7.85;;;;;;;;;;4950329;28;20402;-48
2021/06/15 21:17:54;;;;;;;5.43;3.00;;;;;;;;;;5352790;23;20563;-51
2021/06/15 21:20:20;;;;;;;3.28;2.40;;;;;;;;;;4964917;28;20026;-51
2021/06/15 21:22:46;;;;;;;7.20;2.90;;;;;;;;;;4951806;28;20031;-53
2021/06/15 21:25:12;;;;;;;3.70;2.70;;;;;;;;;;4969330;28;20031;-54
2021/06/15 21:27:38;;;;;;;4.80;2.65;;;;;;;;;;4969508;28;20022;-50
2021/06/15 21:30:06;;;;;;;6.38;2.55;;;;;;;;;;4971216;28;20018;-49
2021/06/15 21:32:32;;;;;;;3.35;2.30;;;;;;;;;;4971487;28;20042;-51
2021/06/15 21:34:58;;;;;;;4.65;2.75;;;;;;;;;;4968347;28;20039;-50
2021/06/15 21:37:25;;;;;;;5.70;3.13;;;;;;;;;;4970341;28;20027;-51
2021/06/15 21:39:51;;;;;;;3.35;2.42;;;;;;;;;;4977136;28;20741;-52
2021/06/15 21:42:18;;;;;;;4.27;2.87;;;;;;;;;;4972937;28;20046;-49
